Time;durP1;ratioP1;P1;durP2;ratioP2;P2;SDS_P1;SDS_P2;PMS_P1;PMS_P2;Temp;Humidity;BMP_temperature;BMP_pressure;BME280_temperature;BME280_humidity;BME280_pressure;Samples;Min_cycle;Max_cycle;Signal;HPM_P1;HPM_P2
2021/04/01 00:00:12;;;;;;;22.63;14.10;;;11.60;99.90;;;;;;5007510;28;20215;-84
2021/04/01 00:02:37;;;;;;;22.83;14.50;;;11.60;99.90;;;;;;5025434;28;20180;-84
2021/04/01 00:05:04;;;;;;;21.13;14.73;;;11.80;99.90;;;;;;5008591;28;20213;-84
2021/04/01 00:07:30;;;;;;;20.60;14.13;;;11.50;99.90;;;;;;5026409;28;20270;-84
2021/04/01 00:09:55;;;;;;;20.70;14.47;;;11.50;99.90;;;;;;5026813;28;20190;-84
2021/04/01 00:12:21;;;;;;;20.00;13.50;;;11.50;99.90;;;;;;5025562;28;20643;-84
2021/04/01 00:14:47;;;;;;;18.43;13.53;;;11.40;99.90;;;;;;5010525;28;20572;-84
2021/04/01 00:17:12;;;;;;;22.80;14.57;;;11.50;99.90;;;;;;5009523;28;20202;-84
2021/04/01 00:19:38;;;;;;;22.83;14.40;;;11.30;99.90;;;;;;5008999;28;20215;-84
2021/04/01 00:22:04;;;;;;;20.83;14.83;;;11.60;99.90;;;;;;5009852;28;20217;-84
2021/04/01 00:24:29;;;;;;;18.93;14.50;;;11.20;99.90;;;;;;5026258;28;20570;-84
2021/04/01 00:26:55;;;;;;;23.43;14.47;;;11.20;99.90;;;;;;5027113;28;20182;-84
2021/04/01 00:29:21;;;;;;;20.80;14.50;;;11.10;99.90;;;;;;5010394;28;20290;-85
2021/04/01 00:31:46;;;;;;;20.83;14.00;;;11.10;99.90;;;;;;5009802;28;20549;-84
2021/04/01 00:34:12;;;;;;;23.30;14.40;;;11.30;99.90;;;;;;5010721;28;20214;-84
2021/04/01 00:36:37;;;;;;;22.73;14.90;;;11.10;99.90;;;;;;5010824;28;20186;-84
2021/04/01 00:39:03;;;;;;;22.80;15.63;;;11.10;99.90;;;;;;5009818;28;20241;-84
2021/04/01 00:41:29;;;;;;;22.73;14.03;;;11.00;99.90;;;;;;5025632;28;20650;-84
2021/04/01 00:43:54;;;;;;;24.40;15.17;;;11.00;99.90;;;;;;5009416;28;20183;-84
2021/04/01 00:46:20;;;;;;;22.83;15.90;;;11.00;99.90;;;;;;5009531;28;20190;-84
2021/04/01 00:48:45;;;;;;;20.77;14.17;;;11.80;99.90;;;;;;5025841;28;20175;-84
2021/04/01 00:51:11;;;;;;;19.70;14.73;;;11.10;99.90;;;;;;5009359;28;20244;-84
2021/04/01 00:53:36;;;;;;;22.10;15.33;;;12.10;99.90;;;;;;5026230;28;20179;-84
2021/04/01 00:56:02;;;;;;;23.67;16.20;;;10.90;99.90;;;;;;5010204;28;20198;-84
2021/04/01 00:58:28;;;;;;;24.13;15.93;;;10.90;99.90;;;;;;5025440;28;20218;-84
2021/04/01 01:03:38;;;;;;;24.70;17.40;;;11.00;99.90;;;;;;5025827;28;20238;-84
2021/04/01 01:06:04;;;;;;;26.07;16.30;;;11.00;99.90;;;;;;5025541;28;20179;-84
2021/04/01 01:08:30;;;;;;;23.23;16.47;;;10.90;99.90;;;;;;5026326;28;20175;-84
2021/04/01 01:10:55;;;;;;;24.03;16.23;;;10.90;99.90;;;;;;5009333;28;20234;-85
2021/04/01 01:13:21;;;;;;;25.37;16.33;;;11.10;99.90;;;;;;5023596;28;20197;-85
2021/04/01 01:15:46;;;;;;;25.30;16.20;;;11.00;99.90;;;;;;5009516;28;20187;-85
2021/04/01 01:18:12;;;;;;;25.80;16.40;;;11.00;99.90;;;;;;5009455;28;20207;-84
2021/04/01 01:20:38;;;;;;;24.23;16.60;;;11.10;99.90;;;;;;5025930;28;20195;-84
2021/04/01 01:23:07;;;;;;;25.93;16.40;;;11.00;99.90;;;;;;5026418;28;20183;-85
2021/04/01 01:25:32;;;;;;;26.97;15.90;;;11.10;99.90;;;;;;5026318;28;20211;-84
2021/04/01 01:27:58;;;;;;;25.77;16.83;;;11.10;99.90;;;;;;5010103;28;20178;-83
2021/04/01 01:30:23;;;;;;;24.73;17.03;;;11.20;99.90;;;;;;5008882;28;20207;-84
2021/04/01 01:32:57;;;;;;;23.77;16.90;;;11.00;99.90;;;;;;5025622;28;20659;-84
2021/04/01 01:35:28;;;;;;;24.10;16.80;;;11.20;99.90;;;;;;5026810;28;20352;-85
2021/04/01 01:37:58;;;;;;;25.67;17.20;;;11.00;99.90;;;;;;5009959;28;20203;-84
2021/04/01 01:40:24;;;;;;;27.03;17.47;;;11.20;99.90;;;;;;5026506;28;20196;-85
2021/04/01 01:42:51;;;;;;;23.93;16.27;;;11.10;99.90;;;;;;5009047;28;20179;-85
2021/04/01 01:45:16;;;;;;;21.70;15.80;;;11.10;99.90;;;;;;5010327;28;20177;-84
2021/04/01 01:47:42;;;;;;;24.97;16.43;;;11.10;99.90;;;;;;5025151;28;20248;-84
2021/04/01 01:50:13;;;;;;;25.40;16.80;;;11.20;99.90;;;;;;5009319;28;20249;-85
2021/04/01 01:52:39;;;;;;;22.47;16.33;;;11.10;99.90;;;;;;5024912;28;20179;-84
2021/04/01 01:55:06;;;;;;;25.57;16.80;;;11.30;99.90;;;;;;5010639;28;20217;-85
2021/04/01 01:57:32;;;;;;;23.47;17.30;;;11.10;99.90;;;;;;5008415;28;20510;-85
2021/04/01 01:59:59;;;;;;;24.23;16.03;;;11.10;99.90;;;;;;5008962;28;20238;-84
2021/04/01 02:02:24;;;;;;;25.17;16.97;;;11.10;99.90;;;;;;5025992;28;20241;-85
2021/04/01 02:04:50;;;;;;;23.90;16.20;;;11.30;99.90;;;;;;5025073;28;20255;-84
2021/04/01 02:07:15;;;;;;;23.77;16.60;;;11.10;99.90;;;;;;5009378;28;20172;-84
2021/04/01 02:09:47;;;;;;;22.90;15.97;;;11.10;99.90;;;;;;5009749;28;20297;-84
2021/04/01 02:12:16;;;;;;;24.77;16.20;;;11.20;99.90;;;;;;5026639;28;20190;-84
2021/04/01 02:14:42;;;;;;;26.97;17.37;;;11.20;99.90;;;;;;5006505;28;20184;-84
2021/04/01 02:17:10;;;;;;;24.53;17.20;;;11.20;99.90;;;;;;4995243;28;20211;-84
2021/04/01 02:19:35;;;;;;;23.90;17.07;;;11.20;99.90;;;;;;4995194;28;20726;-84
2021/04/01 02:22:01;;;;;;;25.97;17.73;;;11.20;99.90;;;;;;4995318;28;20215;-84
2021/04/01 02:24:27;;;;;;;25.67;17.53;;;11.20;99.90;;;;;;4996927;28;20183;-84
2021/04/01 02:26:55;;;;;;;28.10;18.67;;;11.10;99.90;;;;;;4996901;28;20206;-84
2021/04/01 02:29:24;;;;;;;25.80;17.87;;;11.20;99.90;;;;;;4996786;28;20226;-83
2021/04/01 02:31:50;;;;;;;26.93;18.63;;;11.20;99.90;;;;;;5013054;28;20189;-83
2021/04/01 02:34:16;;;;;;;27.73;18.50;;;11.10;99.90;;;;;;4997101;28;20184;-83
2021/04/01 02:36:42;;;;;;;27.97;18.77;;;11.20;99.90;;;;;;4997205;28;20182;-84
2021/04/01 02:39:08;;;;;;;26.43;17.40;;;11.20;99.90;;;;;;4996699;28;20266;-84
2021/04/01 02:41:33;;;;;;;29.27;18.20;;;11.20;99.90;;;;;;4997395;28;20175;-84
2021/04/01 02:43:59;;;;;;;25.97;18.50;;;11.20;99.90;;;;;;5000591;28;20176;-83
2021/04/01 02:46:24;;;;;;;26.67;17.93;;;11.30;99.90;;;;;;5001092;28;20185;-83
2021/04/01 02:48:50;;;;;;;26.57;18.43;;;11.20;99.90;;;;;;5000532;28;20180;-83
2021/04/01 02:51:15;;;;;;;26.67;18.37;;;11.30;99.90;;;;;;5000677;28;20604;-83
2021/04/01 02:53:41;;;;;;;26.80;18.37;;;11.30;99.90;;;;;;5017447;28;20187;-83
2021/04/01 02:56:07;;;;;;;27.37;18.37;;;11.30;99.90;;;;;;5000509;28;20183;-84
2021/04/01 02:58:34;;;;;;;29.00;18.47;;;11.30;99.90;;;;;;4999738;28;20665;-84
2021/04/01 03:00:59;;;;;;;29.20;19.23;;;11.30;99.90;;;;;;4996756;28;20205;-83
2021/04/01 03:03:28;;;;;;;29.17;19.93;;;11.30;99.90;;;;;;4981239;28;20686;-84
2021/04/01 03:05:55;;;;;;;31.80;19.17;;;11.40;99.90;;;;;;4981572;28;20194;-83
2021/04/01 03:08:21;;;;;;;27.63;18.60;;;11.40;99.90;;;;;;4980953;28;20188;-84
2021/04/01 03:10:47;;;;;;;29.90;19.37;;;11.50;99.90;;;;;;4981128;28;20259;-84
2021/04/01 03:13:12;;;;;;;32.47;19.47;;;11.40;99.90;;;;;;4980360;28;20195;-83
2021/04/01 03:15:38;;;;;;;27.70;19.00;;;11.50;99.90;;;;;;4980342;28;20255;-83
2021/04/01 03:18:04;;;;;;;32.13;20.43;;;11.50;99.90;;;;;;4980447;28;20259;-84
2021/04/01 03:20:29;;;;;;;30.07;20.63;;;11.50;99.90;;;;;;4980792;28;20242;-83
2021/04/01 03:22:55;;;;;;;32.57;19.70;;;11.50;99.90;;;;;;4980595;28;20180;-84
2021/04/01 03:25:20;;;;;;;30.53;20.27;;;11.50;99.90;;;;;;4980699;28;20242;-83
2021/04/01 03:27:46;;;;;;;33.80;20.63;;;11.60;99.90;;;;;;4980865;28;20647;-84
2021/04/01 03:30:13;;;;;;;30.27;19.70;;;11.60;99.90;;;;;;4980840;28;20195;-83
2021/04/01 03:32:43;;;;;;;27.97;19.73;;;11.70;99.90;;;;;;4980663;28;20218;-83
2021/04/01 03:35:11;;;;;;;31.50;20.73;;;11.80;99.90;;;;;;4980814;28;20182;-84
2021/04/01 03:37:36;;;;;;;33.67;21.17;;;11.70;99.90;;;;;;4980121;28;20330;-83
2021/04/01 03:40:03;;;;;;;32.70;21.10;;;11.80;99.90;;;;;;4980117;28;20267;-84
2021/04/01 03:42:29;;;;;;;34.53;20.33;;;11.90;99.90;;;;;;4980624;28;20203;-83
2021/04/01 03:44:55;;;;;;;33.43;21.07;;;11.90;99.90;;;;;;4980738;28;20179;-84
2021/04/01 03:47:20;;;;;;;33.50;20.77;;;12.10;99.90;;;;;;4981756;28;20199;-83
2021/04/01 03:49:46;;;;;;;32.00;20.67;;;12.10;99.90;;;;;;4979428;28;20203;-83
2021/04/01 03:52:12;;;;;;;33.17;21.30;;;12.20;99.90;;;;;;4963643;28;20683;-84
2021/04/01 03:54:37;;;;;;;34.33;21.03;;;12.00;99.90;;;;;;4979740;28;20600;-83
2021/04/01 03:57:03;;;;;;;33.63;21.17;;;12.00;99.90;;;;;;4980111;28;20188;-83
2021/04/01 03:59:40;;;;;;;33.23;21.63;;;11.90;99.90;;;;;;4979940;28;20216;-83
2021/04/01 04:02:35;;;;;;;32.70;21.03;;;11.90;99.90;;;;;;4981423;28;20172;-84
2021/04/01 04:17:30;;;;;;;38.73;22.93;;;12.00;99.90;;;;;;4979345;28;20534;-84
2021/04/01 04:19:56;;;;;;;35.87;22.67;;;12.10;99.90;;;;;;4980016;28;20243;-84
2021/04/01 04:22:22;;;;;;;36.23;22.20;;;12.20;99.90;;;;;;4979719;28;20180;-83
2021/04/01 04:24:48;;;;;;;35.10;22.07;;;12.30;99.90;;;;;;4979912;28;20267;-83
2021/04/01 04:27:35;;;;;;;34.83;21.50;;;12.30;99.90;;;;;;4979580;28;20215;-84
2021/04/01 04:30:02;;;;;;;41.00;22.63;;;12.10;99.90;;;;;;4981921;28;20196;-84
2021/04/01 04:32:31;;;;;;;36.10;22.50;;;12.00;99.90;;;;;;4979973;28;20176;-83
2021/04/01 04:34:57;;;;;;;38.90;22.27;;;11.90;99.90;;;;;;4980175;28;20187;-83
2021/04/01 04:37:22;;;;;;;37.67;21.40;;;12.00;99.90;;;;;;4979449;28;20242;-84
2021/04/01 04:39:48;;;;;;;37.90;21.60;;;12.10;99.90;;;;;;4979091;28;20212;-84
2021/04/01 04:42:13;;;;;;;37.73;22.67;;;11.90;99.90;;;;;;4979259;28;20186;-84
2021/04/01 04:44:39;;;;;;;38.20;21.80;;;11.70;99.90;;;;;;4979284;28;20184;-84
2021/04/01 04:47:05;;;;;;;36.27;22.57;;;11.60;99.90;;;;;;4978529;28;20234;-84
2021/04/01 04:49:33;;;;;;;39.33;23.03;;;11.40;99.90;;;;;;4979868;28;20215;-84
2021/04/01 04:51:59;;;;;;;35.07;21.83;;;11.40;99.90;;;;;;4979171;28;20270;-84
2021/04/01 04:54:28;;;;;;;38.87;22.77;;;11.30;99.90;;;;;;4981937;28;20218;-84
2021/04/01 04:56:55;;;;;;;42.37;23.60;;;11.20;99.90;;;;;;4980098;28;20217;-83
2021/04/01 04:59:31;;;;;;;39.40;23.43;;;11.30;99.90;;;;;;4979377;28;20222;-84
2021/04/01 05:04:44;;;;;;;41.93;23.53;;;11.30;99.90;;;;;;4981547;28;20202;-84
2021/04/01 05:07:10;;;;;;;39.10;23.43;;;11.40;99.90;;;;;;4995278;28;20230;-84
2021/04/01 05:09:35;;;;;;;44.67;24.30;;;11.50;99.90;;;;;;4978881;28;20211;-84
2021/04/01 05:12:01;;;;;;;41.57;23.07;;;11.50;99.90;;;;;;4979117;28;20223;-84
2021/04/01 05:14:26;;;;;;;40.07;24.53;;;11.50;99.90;;;;;;4979161;28;20184;-84
2021/04/01 05:16:52;;;;;;;41.07;24.27;;;11.50;99.90;;;;;;4978922;28;20279;-83
2021/04/01 05:19:19;;;;;;;42.80;24.73;;;11.50;99.90;;;;;;4978557;28;20216;-83
2021/04/01 05:21:52;;;;;;;39.50;24.53;;;11.50;99.90;;;;;;4979464;28;20180;-84
2021/04/01 05:24:21;;;;;;;42.40;24.27;;;11.40;99.90;;;;;;4981160;28;20188;-83
2021/04/01 05:29:26;;;;;;;37.10;22.67;;;11.50;99.90;;;;;;4980035;28;20211;-84
2021/04/01 05:31:52;;;;;;;46.10;24.53;;;11.50;99.90;;;;;;4980075;28;20191;-83
2021/04/01 05:34:18;;;;;;;47.43;25.90;;;11.50;99.90;;;;;;4963125;28;20188;-83
2021/04/01 05:36:45;;;;;;;42.27;24.43;;;11.50;99.90;;;;;;4978895;28;20556;-84
2021/04/01 05:39:24;;;;;;;46.70;25.93;;;11.60;99.90;;;;;;4978817;28;20231;-84
2021/04/01 05:41:52;;;;;;;44.10;24.53;;;11.90;99.90;;;;;;4996328;28;20187;-83
2021/04/01 05:44:22;;;;;;;47.67;25.23;;;11.90;99.90;;;;;;4978656;28;20294;-83
2021/04/01 06:04:52;;;;;;;44.80;25.50;;;11.60;99.90;;;;;;4978270;28;20187;-84
2021/04/01 06:07:29;;;;;;;45.53;26.10;;;11.70;99.90;;;;;;4994108;28;20180;-84
2021/04/01 06:09:58;;;;;;;45.63;26.90;;;11.70;99.90;;;;;;4979066;28;20574;-83
2021/04/01 06:12:30;;;;;;;47.33;26.33;;;11.80;99.90;;;;;;4980132;28;20207;-84
2021/04/01 06:15:12;;;;;;;50.80;27.23;;;11.90;99.90;;;;;;4978059;28;20234;-84
2021/04/01 06:17:46;;;;;;;45.53;25.97;;;12.10;99.90;;;;;;4979799;28;20202;-84
2021/04/01 06:20:12;;;;;;;44.23;26.53;;;12.40;99.90;;;;;;4982253;28;20254;-84
2021/04/01 06:22:39;;;;;;;46.07;26.40;;;12.80;99.90;;;;;;4987517;28;20182;-84
2021/04/01 06:25:10;;;;;;;51.83;29.37;;;13.40;99.90;;;;;;5007307;28;20176;-81
2021/04/01 06:27:50;;;;;;;46.57;26.03;;;14.00;99.90;;;;;;5010885;28;20193;-80
2021/04/01 06:30:27;;;;;;;51.60;28.07;;;14.70;99.90;;;;;;5020565;28;20268;-76
2021/04/01 06:33:07;;;;;;;51.57;27.90;;;15.50;99.90;;;;;;5020228;28;20552;-76
2021/04/01 06:35:37;;;;;;;49.17;27.63;;;16.10;99.90;;;;;;4998609;28;20175;-79
2021/04/01 06:40:39;;;;;;;47.80;28.83;;;17.40;99.90;;;;;;5013857;28;20626;-77
2021/04/01 06:43:13;;;;;;;52.27;29.57;;;17.80;99.90;;;;;;5016806;28;20180;-80
2021/04/01 06:45:39;;;;;;;51.17;28.53;;;18.00;99.90;;;;;;5001713;28;20596;-80
2021/04/01 06:48:05;;;;;;;48.67;27.87;;;18.40;99.90;;;;;;5001619;28;20187;-80
2021/04/01 06:50:35;;;;;;;49.90;29.47;;;18.20;99.90;;;;;;5000802;28;20206;-80
2021/04/01 06:53:08;;;;;;;49.13;28.80;;;17.70;99.90;;;;;;5003117;28;20171;-79
2021/04/01 07:06:16;;;;;;;53.37;30.50;;;16.80;99.90;;;;;;5006820;28;20183;-77
2021/04/01 07:11:24;;;;;;;52.97;31.10;;;16.80;99.90;;;;;;5016771;28;20195;-81
2021/04/01 07:13:51;;;;;;;56.53;31.33;;;17.10;99.90;;;;;;5001412;28;20183;-83
2021/04/01 07:19:00;;;;;;;62.53;33.03;;;17.30;99.90;;;;;;5017401;28;20804;-77
2021/04/01 07:32:51;;;;;;;56.27;32.33;;;17.30;99.90;;;;;;5014043;28;20234;-76
2021/04/01 07:44:47;;;;;;;65.93;33.73;;;16.50;99.90;;;;;;5014190;28;20677;-78
2021/04/01 07:48:44;;;;;;;64.63;34.37;;;16.70;99.90;;;;;;5014481;28;20179;-79
2021/04/01 07:54:11;;;;;;;65.37;35.13;;;17.20;99.90;;;;;;5015869;28;20228;-81
2021/04/01 07:57:03;;;;;;;65.87;34.47;;;17.50;99.90;;;;;;4983264;28;20179;-80
2021/04/01 07:59:48;;;;;;;67.20;34.83;;;17.50;99.90;;;;;;5002754;28;20227;-82
2021/04/01 08:04:46;;;;;;;66.70;35.97;;;17.80;99.90;;;;;;5001819;28;20167;-79
2021/04/01 08:07:15;;;;;;;65.00;35.70;;;18.00;99.90;;;;;;5000668;28;20194;-79
2021/04/01 08:09:45;;;;;;;65.27;34.30;;;18.20;99.90;;;;;;5000575;28;20278;-82
2021/04/01 08:12:27;;;;;;;65.07;34.53;;;18.30;99.90;;;;;;5001480;28;20199;-79
2021/04/01 08:15:04;;;;;;;60.93;34.03;;;18.40;99.90;;;;;;4985468;28;20278;-79
2021/04/01 08:17:35;;;;;;;69.90;36.67;;;18.60;99.90;;;;;;5017930;28;20179;-77
2021/04/01 08:20:01;;;;;;;61.33;33.70;;;18.70;99.90;;;;;;4981536;28;20303;-77
2021/04/01 08:22:28;;;;;;;61.40;34.23;;;18.90;99.90;;;;;;4990267;28;20182;-78
2021/04/01 08:24:58;;;;;;;64.43;34.93;;;19.00;99.90;;;;;;4999137;28;20182;-78
2021/04/01 08:27:54;;;;;;;67.27;34.87;;;19.20;99.90;;;;;;4998938;28;20547;-78
2021/04/01 08:35:39;;;;;;;63.13;35.63;;;19.20;99.90;;;;;;5003132;28;20176;-77
2021/04/01 08:40:32;;;;;;;66.00;37.33;;;19.50;99.90;;;;;;4978783;28;20206;-78
2021/04/01 08:43:35;;;;;;;64.23;35.20;;;19.50;99.90;;;;;;4979041;28;20195;-79
2021/04/01 08:46:18;;;;;;;60.37;34.13;;;19.70;99.90;;;;;;4995013;28;20169;-78
2021/04/01 08:49:00;;;;;;;63.17;36.27;;;19.50;99.90;;;;;;4981692;28;20237;-79
2021/04/01 08:51:41;;;;;;;64.07;35.23;;;19.30;99.90;;;;;;5014205;28;20168;-79
2021/04/01 08:54:25;;;;;;;60.50;34.93;;;19.50;99.90;;;;;;5014964;28;20166;-79
2021/04/01 08:56:55;;;;;;;59.83;33.70;;;20.00;99.90;;;;;;5013477;28;20204;-78
2021/04/01 08:59:47;;;;;;;62.87;35.00;;;20.20;99.90;;;;;;5015056;28;20294;-77
2021/04/01 09:02:18;;;;;;;64.50;35.50;;;20.30;99.90;;;;;;5027674;28;20237;-77
2021/04/01 09:04:48;;;;;;;60.53;34.20;;;20.30;99.90;;;;;;5012493;28;20172;-74
2021/04/01 09:07:16;;;;;;;63.63;35.50;;;20.20;99.90;;;;;;5016136;28;20190;-74
2021/04/01 09:09:44;;;;;;;62.50;35.23;;;20.40;99.90;;;;;;5008334;28;20203;-75
2021/04/01 09:12:34;;;;;;;63.30;35.13;;;20.60;99.90;;;;;;5027801;28;20186;-77
2021/04/01 09:15:05;;;;;;;63.27;35.87;;;21.10;99.90;;;;;;4986647;28;20546;-78
2021/04/01 09:17:32;;;;;;;61.43;35.33;;;21.50;99.90;;;;;;5022988;28;20183;-77
2021/04/01 09:19:58;;;;;;;59.73;36.17;;;21.80;99.90;;;;;;5026152;28;20576;-78
2021/04/01 09:22:27;;;;;;;61.43;35.10;;;22.40;99.90;;;;;;4979785;28;20176;-76
2021/04/01 09:25:03;;;;;;;60.63;34.93;;;23.00;99.90;;;;;;5010776;28;20168;-75
2021/04/01 09:27:29;;;;;;;63.80;36.00;;;23.50;99.90;;;;;;4998129;28;20761;-76
2021/04/01 09:30:06;;;;;;;62.33;35.53;;;23.50;99.90;;;;;;4980594;28;20243;-77
2021/04/01 09:32:31;;;;;;;58.27;35.00;;;22.90;98.00;;;;;;4970171;28;20174;-76
2021/04/01 09:34:58;;;;;;;58.20;34.40;;;22.70;99.90;;;;;;5008049;28;20179;-77
2021/04/01 09:37:24;;;;;;;61.30;35.43;;;22.70;99.90;;;;;;4990570;28;20183;-74
2021/04/01 09:39:49;;;;;;;63.30;36.27;;;22.70;99.90;;;;;;5015812;28;20207;-75
2021/04/01 09:42:15;;;;;;;62.80;36.33;;;22.30;99.90;;;;;;5027558;28;20182;-75
2021/04/01 09:44:51;;;;;;;57.77;34.53;;;22.20;99.90;;;;;;4984435;28;20171;-77
2021/04/01 09:47:35;;;;;;;59.40;36.27;;;22.60;99.90;;;;;;5020751;28;20214;-77
2021/04/01 09:50:05;;;;;;;61.30;36.63;;;22.30;99.90;;;;;;5011338;28;20206;-77
2021/04/01 09:52:30;;;;;;;65.47;36.97;;;22.60;99.90;;;;;;5016747;28;20177;-77
2021/04/01 09:55:03;;;;;;;65.90;38.83;;;22.50;99.90;;;;;;5007150;28;20168;-77
2021/04/01 09:57:47;;;;;;;69.10;39.30;;;22.80;99.70;;;;;;5023919;28;20170;-77
2021/04/01 10:00:26;;;;;;;71.50;39.60;;;22.30;99.90;;;;;;5014328;28;20702;-77
2021/04/01 10:03:12;;;;;;;67.47;39.73;;;22.20;99.90;;;;;;4988983;28;20171;-77
2021/04/01 10:05:40;;;;;;;66.90;39.07;;;22.60;99.90;;;;;;5020921;28;20221;-78
2021/04/01 10:08:10;;;;;;;66.13;40.10;;;22.50;99.90;;;;;;4980194;28;20184;-77
2021/04/01 10:10:41;;;;;;;70.23;41.00;;;21.30;99.90;;;;;;4989715;28;20198;-76
2021/04/01 10:13:28;;;;;;;72.63;41.13;;;21.20;99.90;;;;;;4961083;28;20203;-80
2021/04/01 10:15:55;;;;;;;67.77;42.30;;;21.10;99.90;;;;;;5014101;28;20193;-80
2021/04/01 10:18:29;;;;;;;69.07;42.93;;;21.10;99.90;;;;;;5003054;28;20241;-80
2021/04/01 10:21:09;;;;;;;72.80;44.23;;;21.00;99.90;;;;;;5019993;28;20191;-81
2021/04/01 10:23:44;;;;;;;76.53;44.17;;;20.90;99.90;;;;;;4987699;28;20183;-79
2021/04/01 10:26:11;;;;;;;74.27;45.10;;;20.80;99.90;;;;;;5003181;28;20183;-82
2021/04/01 10:28:43;;;;;;;76.43;46.77;;;20.80;99.90;;;;;;5000710;28;20613;-79
2021/04/01 10:31:10;;;;;;;78.03;46.17;;;20.70;99.90;;;;;;4999919;28;20207;-77
2021/04/01 10:34:05;;;;;;;77.27;45.03;;;20.20;99.90;;;;;;5000220;28;20184;-80
2021/04/01 10:36:31;;;;;;;83.10;46.33;;;20.00;99.90;;;;;;5018849;28;20187;-79
2021/04/01 10:39:08;;;;;;;85.37;48.47;;;19.90;99.90;;;;;;5017223;28;20279;-80
2021/04/01 10:41:47;;;;;;;81.37;48.40;;;19.60;99.90;;;;;;4988559;28;20191;-79
2021/04/01 10:44:13;;;;;;;83.23;49.00;;;19.70;99.90;;;;;;5032381;28;20163;-79
2021/04/01 10:46:42;;;;;;;86.10;46.63;;;19.80;99.90;;;;;;4990203;28;20186;-80
2021/04/01 10:49:07;;;;;;;79.20;46.47;;;19.90;99.90;;;;;;4982918;28;20303;-80
2021/04/01 10:51:33;;;;;;;82.73;47.57;;;19.50;99.90;;;;;;5005598;28;20515;-80
2021/04/01 10:53:58;;;;;;;82.30;47.87;;;19.50;99.90;;;;;;5000020;28;20238;-79
2021/04/01 10:56:24;;;;;;;81.43;46.47;;;19.60;99.90;;;;;;4999890;28;20521;-82
2021/04/01 10:58:54;;;;;;;77.23;46.07;;;19.40;99.90;;;;;;5017830;28;20215;-84
2021/04/01 11:01:23;;;;;;;79.17;46.13;;;19.10;99.90;;;;;;4979619;28;20584;-86
2021/04/01 11:03:52;;;;;;;79.10;47.07;;;19.10;99.90;;;;;;4991791;28;20234;-80
2021/04/01 11:06:18;;;;;;;76.67;46.07;;;18.90;99.90;;;;;;5012860;28;20193;-79
2021/04/01 11:08:44;;;;;;;80.77;45.10;;;18.80;99.90;;;;;;5005834;28;20594;-78
2021/04/01 11:11:10;;;;;;;79.07;43.67;;;18.80;99.90;;;;;;4987590;28;20238;-80
2021/04/01 11:13:37;;;;;;;78.87;46.33;;;18.50;99.90;;;;;;4993692;28;20184;-81
2021/04/01 11:16:04;;;;;;;69.63;41.27;;;18.60;99.90;;;;;;4998430;28;20191;-80
2021/04/01 11:18:30;;;;;;;79.30;43.33;;;18.70;99.90;;;;;;5016212;28;20206;-79
2021/04/01 11:20:56;;;;;;;75.60;42.23;;;18.50;99.90;;;;;;4999680;28;20199;-80
2021/04/01 11:23:24;;;;;;;69.77;41.00;;;18.60;99.90;;;;;;4999418;28;20197;-79
2021/04/01 11:25:54;;;;;;;69.23;40.93;;;18.70;99.90;;;;;;5001366;28;20255;-80
2021/04/01 11:28:39;;;;;;;68.53;40.67;;;18.60;99.90;;;;;;4993531;28;20180;-80
2021/04/01 11:31:09;;;;;;;64.07;37.80;;;18.70;99.90;;;;;;4980306;28;20239;-79
2021/04/01 11:33:36;;;;;;;56.30;33.87;;;18.60;99.90;;;;;;4980233;28;20184;-83
2021/04/01 11:36:08;;;;;;;59.27;34.77;;;18.80;99.90;;;;;;4997644;28;20242;-83
2021/04/01 11:38:40;;;;;;;53.17;32.23;;;19.00;99.90;;;;;;5002525;28;20207;-82
2021/04/01 11:41:09;;;;;;;50.97;28.60;;;19.20;99.90;;;;;;5004091;28;20206;-79
2021/04/01 11:43:35;;;;;;;44.83;26.70;;;19.20;99.90;;;;;;5010946;28;20201;-81
2021/04/01 11:46:15;;;;;;;43.17;25.00;;;19.00;99.90;;;;;;4996055;28;20176;-80
2021/04/01 11:48:40;;;;;;;36.17;22.93;;;18.90;99.90;;;;;;4999720;28;20175;-82
2021/04/01 11:51:07;;;;;;;38.33;23.20;;;18.80;99.90;;;;;;5023228;28;20197;-82
2021/04/01 11:53:33;;;;;;;36.50;22.87;;;18.80;99.90;;;;;;5019698;28;20589;-81
2021/04/01 11:55:59;;;;;;;32.60;21.20;;;19.00;99.90;;;;;;5003302;28;20211;-82
2021/04/01 11:58:25;;;;;;;35.67;20.83;;;19.10;99.90;;;;;;4986939;28;20214;-80
2021/04/01 12:01:02;;;;;;;31.03;19.53;;;19.30;99.90;;;;;;5000491;28;20214;-82
2021/04/01 12:03:50;;;;;;;30.10;18.50;;;19.50;99.90;;;;;;5007629;28;20167;-83
2021/04/01 12:06:18;;;;;;;24.77;15.50;;;19.60;99.90;;;;;;5017457;28;20171;-82
2021/04/01 12:08:43;;;;;;;21.80;13.87;;;19.60;99.90;;;;;;4999225;28;20179;-81
2021/04/01 12:11:09;;;;;;;22.23;12.60;;;19.20;99.90;;;;;;5005013;28;20205;-82
2021/04/01 12:13:34;;;;;;;21.23;13.17;;;19.00;99.90;;;;;;5017440;28;20554;-81
2021/04/01 12:16:00;;;;;;;22.63;12.17;;;19.10;99.90;;;;;;4991230;28;20182;-80
2021/04/01 12:18:26;;;;;;;19.33;12.20;;;19.40;99.90;;;;;;5003353;28;20576;-82
2021/04/01 12:20:51;;;;;;;18.73;11.43;;;19.50;99.90;;;;;;5014677;28;20297;-82
2021/04/01 12:23:21;;;;;;;18.23;11.00;;;19.40;99.90;;;;;;4997054;28;20191;-82
2021/04/01 12:25:47;;;;;;;16.17;10.27;;;19.20;99.90;;;;;;4970537;28;20189;-81
2021/04/01 12:28:19;;;;;;;17.67;10.27;;;19.30;99.90;;;;;;5000473;28;20198;-82
2021/04/01 12:30:48;;;;;;;13.77;8.20;;;19.20;99.90;;;;;;5032833;28;20229;-82
2021/04/01 12:33:17;;;;;;;12.30;7.53;;;19.50;99.90;;;;;;5000633;28;20274;-80
2021/04/01 12:35:55;;;;;;;13.27;7.30;;;19.20;99.90;;;;;;4980762;28;20169;-79
2021/04/01 12:38:30;;;;;;;14.53;7.53;;;18.60;99.90;;;;;;4982329;28;20196;-80
2021/04/01 12:40:57;;;;;;;12.63;6.13;;;18.50;99.90;;;;;;5012716;28;20289;-79
2021/04/01 12:43:29;;;;;;;14.83;6.03;;;18.70;99.90;;;;;;4985405;28;20224;-80
2021/04/01 12:45:54;;;;;;;11.53;5.20;;;18.60;99.90;;;;;;5002985;28;20187;-80
2021/04/01 12:48:20;;;;;;;9.83;5.00;;;18.60;99.90;;;;;;4992961;28;20190;-78
2021/04/01 12:50:47;;;;;;;14.97;5.43;;;18.20;99.90;;;;;;5003596;28;20200;-79
2021/04/01 12:53:17;;;;;;;9.67;4.37;;;18.10;99.90;;;;;;4999787;28;20594;-79
2021/04/01 12:55:46;;;;;;;10.73;3.80;;;18.20;99.90;;;;;;4987433;28;20182;-81
2021/04/01 12:58:22;;;;;;;10.27;3.30;;;18.30;99.90;;;;;;4987847;28;20213;-81
2021/04/01 13:00:52;;;;;;;8.00;3.30;;;18.10;99.90;;;;;;4981822;28;20245;-80
2021/04/01 13:03:17;;;;;;;9.47;3.20;;;18.00;99.90;;;;;;4989018;28;20171;-83
2021/04/01 13:05:50;;;;;;;7.63;3.20;;;18.10;99.90;;;;;;5017269;28;20179;-83
2021/04/01 13:10:45;;;;;;;10.07;2.83;;;18.30;99.90;;;;;;5019665;28;20202;-80
2021/04/01 13:13:11;;;;;;;6.73;2.80;;;18.50;99.90;;;;;;5019155;28;20182;-82
2021/04/01 13:15:38;;;;;;;7.40;3.07;;;18.30;99.90;;;;;;5017995;28;20182;-81
2021/04/01 13:18:07;;;;;;;6.03;2.83;;;18.50;99.90;;;;;;5018928;28;20592;-79
2021/04/01 13:20:33;;;;;;;5.87;2.50;;;18.40;99.90;;;;;;5018197;28;20709;-79
2021/04/01 13:25:25;;;;;;;9.47;2.77;;;18.40;99.90;;;;;;4979880;28;20169;-79
2021/04/01 13:27:51;;;;;;;5.97;2.53;;;18.20;99.90;;;;;;4963784;28;20572;-80
2021/04/01 13:30:21;;;;;;;8.10;3.20;;;18.10;99.90;;;;;;4962128;28;20208;-79
2021/04/01 13:36:02;;;;;;;6.03;2.70;;;17.80;99.90;;;;;;4981159;28;20176;-81
2021/04/01 13:38:10;;;;;;;7.70;2.40;;;17.60;99.90;;;;;;5003370;28;20655;-82
2021/04/01 13:40:38;;;;;;;4.00;1.70;;;17.40;99.90;;;;;;4999444;28;20208;-81
2021/04/01 13:43:04;;;;;;;3.50;2.10;;;17.30;99.90;;;;;;4998859;28;20238;-81
2021/04/01 13:45:30;;;;;;;6.43;2.30;;;17.50;99.90;;;;;;4997716;28;20314;-80
2021/04/01 13:48:00;;;;;;;5.30;1.90;;;17.80;99.90;;;;;;4997841;28;20214;-81
2021/04/01 13:50:28;;;;;;;4.60;2.03;;;18.00;99.90;;;;;;4997340;28;20207;-82
2021/04/01 13:55:25;;;;;;;3.87;1.80;;;18.00;99.90;;;;;;5006462;28;20186;-80
2021/04/01 14:11:36;;;;;;;4.43;2.00;;;16.80;99.90;;;;;;5014063;28;20466;-78
2021/04/01 14:14:02;;;;;;;5.37;1.70;;;16.50;99.90;;;;;;4996877;28;20694;-79
2021/04/01 14:16:28;;;;;;;5.17;1.70;;;16.40;99.90;;;;;;5004756;28;20183;-78
2021/04/01 14:18:54;;;;;;;5.97;1.83;;;16.00;99.90;;;;;;4994751;28;20199;-77
2021/04/01 14:21:21;;;;;;;5.07;1.87;;;16.10;99.90;;;;;;5017141;28;20202;-78
2021/04/01 14:23:48;;;;;;;6.90;2.03;;;16.10;99.90;;;;;;5009882;28;20178;-79
2021/04/01 14:26:20;;;;;;;3.77;2.07;;;16.00;99.90;;;;;;5000487;28;20266;-78
2021/04/01 14:28:46;;;;;;;5.43;1.90;;;15.80;99.90;;;;;;5007394;28;20662;-78
2021/04/01 14:31:12;;;;;;;4.50;1.90;;;15.80;99.90;;;;;;4992310;28;20231;-78
2021/04/01 14:33:40;;;;;;;5.03;1.67;;;15.80;99.90;;;;;;4996275;28;20640;-77